地図

経路データ

SID SEASON NUMBER BASIN SUBBASIN NAME ISO_TIME NATURE LAT LON WMO_WIND WMO_PRES WMO_AGENCY TRACK_TYPE DIST2LAND LANDFALL IFLAG USA_AGENCY USA_ATCF_ID USA_LAT USA_LON USA_RECORD USA_STATUS USA_WIND USA_PRES USA_SSHS USA_R34_NE USA_R34_SE USA_R34_SW USA_R34_NW USA_R50_NE USA_R50_SE USA_R50_SW USA_R50_NW USA_R64_NE USA_R64_SE USA_R64_SW USA_R64_NW USA_POCI USA_ROCI USA_RMW USA_EYE TOKYO_LAT TOKYO_LON TOKYO_GRADE TOKYO_WIND TOKYO_PRES TOKYO_R50_DIR TOKYO_R50_LONG TOKYO_R50_SHORT TOKYO_R30_DIR TOKYO_R30_LONG TOKYO_R30_SHORT TOKYO_LAND CMA_LAT CMA_LON CMA_CAT CMA_WIND CMA_PRES HKO_LAT HKO_LON HKO_CAT HKO_WIND HKO_PRES NEWDELHI_LAT NEWDELHI_LON NEWDELHI_GRADE NEWDELHI_WIND NEWDELHI_PRES NEWDELHI_CI NEWDELHI_DP NEWDELHI_POCI REUNION_LAT REUNION_LON REUNION_TYPE REUNION_WIND REUNION_PRES REUNION_TNUM REUNION_CI REUNION_RMW REUNION_R34_NE REUNION_R34_SE REUNION_R34_SW REUNION_R34_NW REUNION_R50_NE REUNION_R50_SE REUNION_R50_SW REUNION_R50_NW REUNION_R64_NE REUNION_R64_SE REUNION_R64_SW REUNION_R64_NW BOM_LAT BOM_LON BOM_TYPE BOM_WIND BOM_PRES BOM_TNUM BOM_CI BOM_RMW BOM_R34_NE BOM_R34_SE BOM_R34_SW BOM_R34_NW BOM_R50_NE BOM_R50_SE BOM_R50_SW BOM_R50_NW BOM_R64_NE BOM_R64_SE BOM_R64_SW BOM_R64_NW BOM_ROCI BOM_POCI BOM_EYE BOM_POS_METHOD BOM_PRES_METHOD NADI_LAT NADI_LON NADI_CAT NADI_WIND NADI_PRES WELLINGTON_LAT WELLINGTON_LON WELLINGTON_WIND WELLINGTON_PRES DS824_LAT DS824_LON DS824_STAGE DS824_WIND DS824_PRES TD9636_LAT TD9636_LON TD9636_STAGE TD9636_WIND TD9636_PRES TD9635_LAT TD9635_LON TD9635_WIND TD9635_PRES TD9635_ROCI NEUMANN_LAT NEUMANN_LON NEUMANN_CLASS NEUMANN_WIND NEUMANN_PRES MLC_LAT MLC_LON MLC_CLASS MLC_WIND MLC_PRES USA_GUST BOM_GUST BOM_GUST_PER REUNION_GUST REUNION_GUST_PER USA_SEAHGT USA_SEARAD_NE USA_SEARAD_SE USA_SEARAD_SW USA_SEARAD_NW STORM_SPEED STORM_DIR
1963268N17257 1963 91 EP MM LILLIAN 1963-09-24 12:00:00 TS 16.9000 -102.700 45 hurdat_epa main 119 119 O________OO___ hurdat_epa EP061963 16.9000 -102.700 TS 45 0 16.9000 -102.700 TC 45 16.9000 -102.700 2 2 257
1963268N17257 1963 91 EP MM LILLIAN 1963-09-24 15:00:00 TS 16.8827 -102.785 main 123 123 P________PP___ EP061963 16.8800 -102.777 TS 45 0 16.8800 -102.777 TC 45 16.8935 -102.813 2 2 271
1963268N17257 1963 91 EP MM LILLIAN 1963-09-24 18:00:00 TS 16.9039 -102.910 45 hurdat_epa main 127 119 O________OP___ hurdat_epa EP061963 16.9000 -102.900 TS 45 0 16.9000 -102.900 TC 45 16.9195 -102.951 2 3 290
1963268N17257 1963 91 EP MM LILLIAN 1963-09-24 21:00:00 TS 17.0001 -103.112 main 123 109 P________PP___ EP061963 16.9974 -103.105 TS 45 0 16.9974 -103.105 TC 45 17.0109 -103.139 2 6 302
1963268N17257 1963 91 EP MM LILLIAN 1963-09-25 00:00:00 TS 17.2000 -103.400 45 hurdat_epa main 113 91 O________OO___ hurdat_epa EP061963 17.2000 -103.400 TS 45 0 17.2000 -103.400 TC 45 17.2000 -103.400 2 8 309
1963268N17257 1963 91 EP MM LILLIAN 1963-09-25 03:00:00 TS 17.5168 -103.772 main 94 76 P________PP___ EP061963 17.5200 -103.777 TS 45 0 17.5200 -103.777 TC 45 17.5039 -103.750 2 10 313
1963268N17257 1963 91 EP MM LILLIAN 1963-09-25 06:00:00 TS 17.8956 -104.192 45 hurdat_epa main 86 84 O________OP___ hurdat_epa EP061963 17.9000 -104.200 TS 45 0 17.9000 -104.200 TC 45 17.8782 -104.161 2 11 314
1963268N17257 1963 91 EP MM LILLIAN 1963-09-25 09:00:00 TS 18.2767 -104.610 main 84 67 P________PP___ EP061963 18.2800 -104.615 TS 45 0 18.2800 -104.615 TC 45 18.2633 -104.591 2 10 313
1963268N17257 1963 91 EP MM LILLIAN 1963-09-25 12:00:00 TS 18.6000 -105.000 45 hurdat_epa main 70 64 O________OO___ hurdat_epa EP061963 18.6000 -105.000 TS 45 0 18.6000 -105.000 TC 45 18.6000 -105.000 2 8 307
1963268N17257 1963 91 EP MM LILLIAN 1963-09-25 15:00:00 TS 18.7837 -105.318 main 69 69 P________PP___ EP061963 18.7799 -105.315 TS 45 0 18.7799 -105.315 TC 45 18.7989 -105.330 2 7 298
1963268N17257 1963 91 EP MM LILLIAN 1963-09-25 18:00:00 TS 18.9089 -105.606 45 hurdat_epa main 84 84 O________OP___ hurdat_epa EP061963 18.9000 -105.600 TS 45 0 18.9000 -105.600 TC 45 18.9445 -105.631 2 6 295
1963268N17257 1963 91 EP MM LILLIAN 1963-09-25 21:00:00 TS 19.0475 -105.903 main 100 92 P________PP___ EP061963 19.0425 -105.900 TS 45 0 19.0425 -105.900 TC 45 19.0678 -105.917 2 6 297
1963268N17257 1963 91 EP MM LILLIAN 1963-09-26 00:00:00 TS 19.2000 -106.200 45 hurdat_epa main 109 109 O________OO___ hurdat_epa EP061963 19.2000 -106.200 TS 45 0 19.2000 -106.200 TC 45 19.2000 -106.200 2 7 301
1963268N17257 1963 91 EP MM LILLIAN 1963-09-26 03:00:00 TS 19.3927 -106.506 main 124 124 P________PP___ EP061963 19.3925 -106.500 TS 45 0 19.3925 -106.500 TC 45 19.3939 -106.528 2 7 305
1963268N17257 1963 91 EP MM LILLIAN 1963-09-26 06:00:00 TS 19.6000 -106.810 45 hurdat_epa main 143 143 O________OP___ hurdat_epa EP061963 19.6000 -106.800 TS 45 0 19.6000 -106.800 TC 45 19.6002 -106.852 2 7 306
1963268N17257 1963 91 EP MM LILLIAN 1963-09-26 09:00:00 TS 19.8073 -107.122 main 160 160 P________PP___ EP061963 19.8075 -107.115 TS 45 0 19.8075 -107.115 TC 45 19.8064 -107.150 2 7 306
1963268N17257 1963 91 EP MM LILLIAN 1963-09-26 12:00:00 TS 20.0000 -107.400 45 hurdat_epa main 182 182 O________OO___ hurdat_epa EP061963 20.0000 -107.400 TS 45 0 20.0000 -107.400 TC 45 20.0000 -107.400 2 6 307
1963268N17257 1963 91 EP MM LILLIAN 1963-09-26 15:00:00 TS 20.1604 -107.628 main 199 199 P________PP___ EP061963 20.1575 -107.638 TS 45 0 20.1575 -107.638 TC 45 20.1722 -107.592 2 5 310
1963268N17257 1963 91 EP MM LILLIAN 1963-09-26 18:00:00 TS 20.3059 -107.787 45 hurdat_epa main 219 218 O________OP___ hurdat_epa EP061963 20.3000 -107.800 TS 45 0 20.3000 -107.800 TC 45 20.3297 -107.733 2 4 324
1963268N17257 1963 91 EP MM LILLIAN 1963-09-26 21:00:00 TS 20.4604 -107.859 main 229 229 P________PP___ EP061963 20.4575 -107.865 TS 45 0 20.4575 -107.865 TC 45 20.4723 -107.832 2 3 341
1963268N17257 1963 91 EP MM LILLIAN 1963-09-27 00:00:00 TS 20.6000 -107.900 45 hurdat_epa main 230 230 O________OO___ hurdat_epa EP061963 20.6000 -107.900 TS 45 0 20.6000 -107.900 TC 45 20.6000 -107.900 2 3 330
1963268N17257 1963 91 EP MM LILLIAN 1963-09-27 03:00:00 TS 20.7064 -108.010 main 241 241 P________PP___ EP061963 20.7075 -108.015 TS 45 0 20.7075 -108.015 TC 45 20.7021 -107.990 2 3 318
1963268N17257 1963 91 EP MM LILLIAN 1963-09-27 06:00:00 TS 20.7985 -108.089 45 hurdat_epa main 253 253 O________OP___ hurdat_epa EP061963 20.8000 -108.100 TS 45 0 20.8000 -108.100 TC 45 20.7923 -108.047 2 2 339
1963268N17257 1963 91 EP MM LILLIAN 1963-09-27 09:00:00 TS 20.8912 -108.087 main 255 248 P________PP___ EP061963 20.8925 -108.095 TS 45 0 20.8925 -108.095 TC 45 20.8864 -108.056 2 2 22
1963268N17257 1963 91 EP MM LILLIAN 1963-09-27 12:00:00 TS 21.0000 -108.000 45 hurdat_epa main 248 231 O________OO___ hurdat_epa EP061963 21.0000 -108.000 TS 45 0 21.0000 -108.000 TC 45 21.0000 -108.000 2 3 44
1963268N17257 1963 91 EP MM LILLIAN 1963-09-27 15:00:00 TS 21.1412 -107.832 main 231 220 P________PP___ EP061963 21.1350 -107.823 TS 45 0 21.1350 -107.823 TC 45 21.1657 -107.869 2 5 49
1963268N17257 1963 91 EP MM LILLIAN 1963-09-27 18:00:00 TS 21.3100 -107.615 45 hurdat_epa main 220 194 O________OP___ hurdat_epa EP061963 21.3000 -107.600 TS 45 0 21.3000 -107.600 TC 45 21.3501 -107.675 2 5 46
1963268N17257 1963 91 EP MM LILLIAN 1963-09-27 21:00:00 TS 21.5128 -107.415 main 194 168 P________PP___ EP061963 21.5074 -107.408 TS 45 0 21.5074 -107.408 TC 45 21.5345 -107.444 2 6 45
1963268N17257 1963 91 EP MM LILLIAN 1963-09-28 00:00:00 TS 21.7000 -107.200 45 hurdat_epa main 168 145 O________OO___ hurdat_epa EP061963 21.7000 -107.200 TS 45 0 21.7000 -107.200 TC 45 21.7000 -107.200 2 5 55
1963268N17257 1963 91 EP MM LILLIAN 1963-09-28 03:00:00 TS 21.8186 -106.953 main 145 112 P________PP___ EP061963 21.8150 -106.950 TS 45 0 21.8150 -106.950 TC 45 21.8328 -106.964 2 5 66
1963268N17257 1963 91 EP MM LILLIAN 1963-09-28 06:00:00 TS 21.9059 -106.706 45 hurdat_epa main 112 88 O________OP___ hurdat_epa EP061963 21.9000 -106.700 TS 45 0 21.9000 -106.700 TC 45 21.9376 -106.737 2 5 71
1963268N17257 1963 91 EP MM LILLIAN 1963-09-28 09:00:00 TS 21.9693 -106.469 main 88 65 P________PP___ EP061963 21.9625 -106.462 TS 45 0 21.9625 -106.462 TC 45 22.0236 -106.517 2 4 63
1963268N17257 1963 91 EP MM LILLIAN 1963-09-28 12:00:00 TS 22.1000 -106.300 45 hurdat_epa main 65 42 O________OO___ hurdat_epa EP061963 22.1000 -106.300 TS 45 0 22.1000 -106.300 TC 45 22.1000 -106.300 2 5 28
1963268N17257 1963 91 EP MM LILLIAN 1963-09-28 15:00:00 TS 22.3824 -106.225 main 42 23 P________P____ EP061963 22.3824 -106.225 TS 45 0 22.3824 -106.225 TC 45 2 7 0
1963268N17257 1963 91 EP MM LILLIAN 1963-09-28 18:00:00 MX 22.8000 -106.300 45 hurdat_epa main 23 10 O________O____ hurdat_epa EP061963 22.8000 -106.300 TS 45 0 22.8000 -106.300 45 2 10 342
1963268N17257 1963 91 EP MM LILLIAN 1963-09-28 21:00:00 MX 23.3228 -106.549 main 10 0 P________P____ EP061963 23.3228 -106.549 TS 45 0 23.3228 -106.549 45 2 12 333
1963268N17257 1963 91 EP MM LILLIAN 1963-09-29 00:00:00 MX 23.9000 -106.900 45 hurdat_epa main 0 O________O____ hurdat_epa EP061963 23.9000 -106.900 TS 45 0 23.9000 -106.900 45 13 331

IBTrACS Databaseについて

本データベースは、米国NOAAが公開する1842年以降の世界の熱帯低気圧のベストトラックデータアーカイブInternational Best Track Archive for Climate Stewardship (IBTrACS)を、ウェブで閲覧しやすい形式に変換したものです。

最終更新日:2021-12-03